createdAt,value
2022-10-22T00:02:22.439Z,98004.69
2022-10-22T00:04:50.512Z,98005.75
2022-10-22T00:07:20.992Z,97996.38
2022-10-22T00:09:48.020Z,97981.34
2022-10-22T00:12:16.304Z,97985.97
2022-10-22T00:14:43.267Z,97984.16
2022-10-22T00:17:11.509Z,97989.59
2022-10-22T00:19:39.506Z,97994.03
2022-10-22T00:22:06.658Z,97993.94
2022-10-22T00:24:34.394Z,97990.31
2022-10-22T00:27:01.395Z,97995.59
2022-10-22T00:29:28.149Z,97988.34
2022-10-22T00:34:23.482Z,97991.25
2022-10-22T00:36:51.508Z,97985.19
2022-10-22T00:39:20.511Z,97995.59
2022-10-22T00:41:49.251Z,98005.75
2022-10-22T00:44:53.583Z,98004.03
2022-10-22T00:47:21.183Z,98005.66
2022-10-22T00:49:48.238Z,98004.41
2022-10-22T00:52:15.028Z,97998.78
2022-10-22T00:54:42.694Z,98000.44
2022-10-22T00:57:09.984Z,98005.50
2022-10-22T00:59:38.276Z,98009.94
2022-10-22T01:02:05.155Z,98015.38
2022-10-22T01:04:31.861Z,98010.28
2022-10-22T01:06:58.511Z,98028.19
2022-10-22T01:09:57.091Z,98037.78
2022-10-22T01:12:30.688Z,98032.94
2022-10-22T01:15:03.677Z,98022.09
2022-10-22T01:17:41.110Z,98021.25
2022-10-22T01:20:32.544Z,98015.72
2022-10-22T01:23:23.020Z,98010.25
2022-10-22T01:26:06.605Z,98018.38
2022-10-22T01:28:57.432Z,98004.16
2022-10-22T01:31:29.538Z,98000.81
2022-10-22T01:33:58.666Z,98004.13
2022-10-22T01:36:25.858Z,97993.53
2022-10-22T01:38:53.531Z,97990.09
2022-10-22T01:41:20.207Z,97991.53
2022-10-22T01:43:46.887Z,97985.53
2022-10-22T01:46:14.374Z,97980.44
2022-10-22T01:49:01.966Z,97973.38
2022-10-22T01:51:40.788Z,97964.59
2022-10-22T01:54:25.476Z,97958.34
2022-10-22T01:57:13.142Z,97953.91
2022-10-22T02:00:15.235Z,97944.38
2022-10-22T02:02:58.408Z,97935.53
2022-10-22T02:05:33.178Z,97941.66
2022-10-22T02:08:02.109Z,97943.47
2022-10-22T02:10:30.726Z,97943.69
2022-10-22T02:13:00.396Z,97941.50
2022-10-22T02:15:29.673Z,97938.94
2022-10-22T02:17:59.962Z,97947.09
2022-10-22T02:20:30.702Z,97941.31
2022-10-22T02:22:58.956Z,97947.78
2022-10-22T02:25:31.988Z,97953.19
2022-10-22T02:28:16.243Z,97959.31
2022-10-22T02:30:47.473Z,97954.63
2022-10-22T02:33:22.207Z,97952.06
2022-10-22T02:35:50.266Z,97949.34
2022-10-22T02:38:18.162Z,97959.38
2022-10-22T02:40:45.035Z,97956.47
2022-10-22T02:43:11.692Z,97953.09
2022-10-22T02:45:38.398Z,97945.44
2022-10-22T02:48:05.502Z,97952.09
2022-10-22T02:50:32.169Z,97966.03
2022-10-22T02:52:58.727Z,97964.81
2022-10-22T02:55:25.294Z,97958.72
2022-10-22T02:57:51.883Z,97969.25
2022-10-22T03:00:18.738Z,97972.00
2022-10-22T03:02:45.322Z,97970.63
2022-10-22T03:05:11.914Z,97978.81
2022-10-22T03:07:39.161Z,97982.81
2022-10-22T03:10:06.452Z,97989.31
2022-10-22T03:12:33.146Z,97988.19
2022-10-22T03:14:59.912Z,97989.13
2022-10-22T03:17:26.586Z,97980.53
2022-10-22T03:19:53.181Z,97985.66
2022-10-22T03:22:32.662Z,97982.03
2022-10-22T03:25:03.238Z,97988.09
2022-10-22T03:27:30.509Z,97980.84
2022-10-22T03:29:58.084Z,97983.47
2022-10-22T03:32:24.793Z,97989.53
2022-10-22T03:34:51.437Z,97989.28
2022-10-22T03:37:18.340Z,97994.69
2022-10-22T03:39:45.537Z,97991.34
2022-10-22T03:42:13.454Z,97996.69
2022-10-22T03:44:40.858Z,97984.69
2022-10-22T03:47:07.526Z,97978.25
2022-10-22T03:49:34.213Z,97981.69
2022-10-22T03:52:12.837Z,97985.47
2022-10-22T03:54:40.207Z,97989.19
2022-10-22T03:57:07.239Z,97983.16
2022-10-22T03:59:39.038Z,97984.41
2022-10-22T04:02:06.178Z,97977.97
2022-10-22T04:04:32.817Z,97979.91
2022-10-22T04:06:59.858Z,97999.53
2022-10-22T04:09:26.432Z,98002.84
2022-10-22T04:11:53.068Z,98012.81
2022-10-22T04:14:19.651Z,98016.69
2022-10-22T04:16:46.509Z,98017.09
2022-10-22T04:19:13.514Z,98033.97
2022-10-22T04:21:40.161Z,98034.19
2022-10-22T04:24:06.914Z,98029.69
2022-10-22T04:26:33.499Z,98031.25
2022-10-22T04:29:00.220Z,98034.97
2022-10-22T04:31:27.069Z,98039.75
2022-10-22T04:33:55.374Z,98038.41
2022-10-22T04:36:22.765Z,98049.28
2022-10-22T04:38:56.834Z,98044.81
2022-10-22T04:41:26.262Z,98049.91
2022-10-22T04:43:54.816Z,98048.16
2022-10-22T04:46:21.946Z,98044.19
2022-10-22T04:48:48.571Z,98053.66
2022-10-22T04:51:17.935Z,98050.94
2022-10-22T04:53:45.457Z,98056.72
2022-10-22T04:56:26.796Z,98049.53
2022-10-22T04:58:59.247Z,98045.66
2022-10-22T05:01:28.643Z,98048.63
2022-10-22T05:03:57.393Z,98052.16
2022-10-22T05:06:24.873Z,98065.19
2022-10-22T05:08:56.670Z,98070.31
2022-10-22T05:11:29.881Z,98067.16
2022-10-22T05:13:58.079Z,98074.81
2022-10-22T05:16:25.287Z,98075.25
2022-10-22T05:18:51.884Z,98081.63
2022-10-22T05:21:20.387Z,98072.63
2022-10-22T05:23:49.046Z,98091.66
2022-10-22T05:26:18.358Z,98084.72
2022-10-22T05:28:45.407Z,98099.34
2022-10-22T05:31:13.917Z,98102.53
2022-10-22T05:33:41.197Z,98093.97
2022-10-22T05:36:11.030Z,98089.63
2022-10-22T05:38:37.748Z,98093.22
2022-10-22T05:41:09.880Z,98082.72
2022-10-22T05:43:37.642Z,98094.63
2022-10-22T05:46:07.229Z,98092.06
2022-10-22T05:48:34.587Z,98096.59
2022-10-22T05:51:05.875Z,98102.03
2022-10-22T05:53:33.473Z,98100.56
2022-10-22T05:56:05.251Z,98097.72
2022-10-22T05:58:32.184Z,98101.28
2022-10-22T06:01:06.280Z,98103.94
2022-10-22T06:03:33.232Z,98115.09
2022-10-22T06:06:02.032Z,98113.63
2022-10-22T06:08:29.855Z,98133.06
2022-10-22T06:10:57.013Z,98132.91
2022-10-22T06:13:23.630Z,98140.91
2022-10-22T06:15:53.502Z,98136.34
2022-10-22T06:18:20.135Z,98138.19
2022-10-22T06:20:47.763Z,98134.69
2022-10-22T06:23:15.450Z,98127.63
2022-10-22T06:25:43.607Z,98129.47
2022-10-22T06:28:10.772Z,98143.63
2022-10-22T06:30:42.893Z,98138.25
2022-10-22T06:33:12.500Z,98150.06
2022-10-22T06:35:39.211Z,98161.56
2022-10-22T06:38:06.598Z,98162.19
2022-10-22T06:40:33.689Z,98168.66
2022-10-22T06:43:00.975Z,98170.63
2022-10-22T06:45:27.666Z,98174.06
2022-10-22T06:47:55.674Z,98173.69
2022-10-22T06:50:22.385Z,98178.72
2022-10-22T06:52:49.053Z,98178.72
2022-10-22T06:55:15.809Z,98177.13
2022-10-22T06:57:42.917Z,98171.72
2022-10-22T07:00:10.366Z,98180.75
2022-10-22T07:02:36.985Z,98180.69
2022-10-22T07:05:03.753Z,98182.41
2022-10-22T07:07:30.425Z,98176.47
2022-10-22T07:09:57.046Z,98168.53
2022-10-22T07:12:23.725Z,98156.13
2022-10-22T07:14:50.554Z,98149.28
2022-10-22T07:17:17.257Z,98153.41
2022-10-22T07:19:44.610Z,98159.00
2022-10-22T07:22:13.745Z,98164.13
2022-10-22T07:24:40.348Z,98164.56
2022-10-22T07:27:09.458Z,98186.94
2022-10-22T07:29:37.520Z,98194.25
2022-10-22T07:32:04.206Z,98195.94
2022-10-22T07:34:30.798Z,98202.78
2022-10-22T07:36:57.460Z,98211.41
2022-10-22T07:39:25.948Z,98212.75
2022-10-22T07:41:52.998Z,98218.03
2022-10-22T07:44:19.584Z,98203.97
2022-10-22T07:46:48.846Z,98209.72
2022-10-22T07:49:15.726Z,98223.78
2022-10-22T07:51:42.238Z,98240.50
2022-10-22T07:54:08.933Z,98267.06
2022-10-22T07:56:35.524Z,98281.91
2022-10-22T08:01:28.636Z,98282.06
2022-10-22T08:03:55.382Z,98271.22
2022-10-22T08:06:21.992Z,98274.69
2022-10-22T08:08:48.736Z,98284.88
2022-10-22T08:11:15.503Z,98286.22
2022-10-22T08:13:45.381Z,98277.34
2022-10-22T08:16:12.443Z,98287.69
2022-10-22T08:18:39.638Z,98284.09
2022-10-22T08:21:06.358Z,98294.53
2022-10-22T08:23:33.116Z,98294.38
2022-10-22T08:25:59.901Z,98285.44
2022-10-22T08:28:28.837Z,98299.97
2022-10-22T08:30:56.108Z,98285.91
2022-10-22T08:33:22.887Z,98287.91
2022-10-22T08:35:51.057Z,98294.06
2022-10-22T08:38:18.696Z,98301.69
2022-10-22T08:40:51.605Z,98303.63
2022-10-22T08:43:37.013Z,98289.06
2022-10-22T08:46:16.975Z,98286.56
2022-10-22T08:48:46.672Z,98295.00
2022-10-22T08:51:22.783Z,98306.25
2022-10-22T08:54:07.807Z,98305.50
2022-10-22T08:56:37.328Z,98308.66
2022-10-22T08:59:17.458Z,98298.03
2022-10-22T09:01:47.961Z,98292.84
2022-10-22T09:04:25.615Z,98295.28
2022-10-22T09:06:55.455Z,98293.59
2022-10-22T09:09:25.821Z,98297.22
2022-10-22T09:11:54.611Z,98298.16
2022-10-22T09:14:24.321Z,98298.38
2022-10-22T09:17:14.285Z,98304.25
2022-10-22T09:19:58.846Z,98302.03
2022-10-22T09:22:39.467Z,98298.25
2022-10-22T09:25:20.788Z,98301.78
2022-10-22T09:27:48.180Z,98305.63
2022-10-22T09:30:21.692Z,98302.44
2022-10-22T09:32:54.894Z,98309.03
2022-10-22T09:35:24.542Z,98296.91
2022-10-22T09:37:56.113Z,98304.03
2022-10-22T09:40:23.748Z,98303.38
2022-10-22T09:42:50.524Z,98298.03
2022-10-22T09:45:24.736Z,98299.47
2022-10-22T09:48:03.099Z,98312.22
2022-10-22T09:50:42.981Z,98304.31
2022-10-22T09:53:26.225Z,98325.06
2022-10-22T09:56:01.243Z,98320.91
2022-10-22T09:58:28.679Z,98316.88
2022-10-22T10:01:00.979Z,98325.31
2022-10-22T10:03:35.925Z,98333.06
2022-10-22T10:06:05.974Z,98331.69
2022-10-22T10:08:33.509Z,98330.28
2022-10-22T10:11:06.223Z,98333.41
2022-10-22T10:13:47.878Z,98325.75
2022-10-22T10:16:42.749Z,98323.88
2022-10-22T10:19:22.809Z,98327.69
2022-10-22T10:22:05.489Z,98329.91
2022-10-22T10:24:38.136Z,98335.84
2022-10-22T10:27:31.049Z,98329.81
2022-10-22T10:30:24.038Z,98326.34
2022-10-22T10:33:32.262Z,98333.53
2022-10-22T10:36:06.902Z,98343.47
2022-10-22T10:38:33.490Z,98337.59
2022-10-22T10:41:24.480Z,98340.84
2022-10-22T10:44:03.027Z,98345.69
2022-10-22T10:46:38.644Z,98347.56
2022-10-22T10:49:19.142Z,98354.00
2022-10-22T10:52:10.088Z,98362.28
2022-10-22T10:54:46.796Z,98355.09
2022-10-22T10:58:03.266Z,98343.03
2022-10-22T11:00:34.945Z,98354.34
2022-10-22T11:03:25.993Z,98354.50
2022-10-22T11:05:59.466Z,98347.81
2022-10-22T11:08:31.988Z,98350.13
2022-10-22T11:11:07.850Z,98350.97
2022-10-22T11:14:00.298Z,98351.69
2022-10-22T11:16:40.402Z,98349.81
2022-10-22T11:19:46.255Z,98346.38
2022-10-22T11:22:26.923Z,98349.41
2022-10-22T11:25:17.419Z,98339.56
2022-10-22T11:27:53.563Z,98341.09
2022-10-22T11:30:23.257Z,98338.84
2022-10-22T11:32:56.159Z,98330.53
2022-10-22T11:35:26.315Z,98338.19
2022-10-22T11:37:56.717Z,98337.38
2022-10-22T11:40:29.123Z,98339.34
2022-10-22T11:43:04.522Z,98330.84
2022-10-22T11:45:42.182Z,98328.19
2022-10-22T11:48:11.850Z,98326.00
2022-10-22T11:50:41.464Z,98333.47
2022-10-22T11:53:14.100Z,98326.53
2022-10-22T11:55:48.099Z,98320.91
2022-10-22T11:58:39.522Z,98327.19
2022-10-22T12:01:09.233Z,98334.97
2022-10-22T12:03:38.074Z,98316.88
2022-10-22T12:06:15.142Z,98323.22
2022-10-22T12:09:04.928Z,98330.75
2022-10-22T12:11:47.885Z,98337.28
2022-10-22T12:14:20.060Z,98333.19
2022-10-22T12:16:57.275Z,98336.81
2022-10-22T12:19:27.951Z,98336.63
2022-10-22T12:21:58.871Z,98338.53
2022-10-22T12:24:29.946Z,98336.28
2022-10-22T12:26:56.557Z,98340.78
2022-10-22T12:29:24.174Z,98338.16
2022-10-22T12:31:50.857Z,98338.00
2022-10-22T12:34:21.560Z,98342.22
2022-10-22T12:36:50.042Z,98332.34
2022-10-22T12:39:20.039Z,98333.56
2022-10-22T12:41:47.404Z,98320.69
2022-10-22T12:44:18.640Z,98329.78
2022-10-22T12:46:50.540Z,98326.66
2022-10-22T12:49:31.099Z,98325.31
2022-10-22T12:52:03.153Z,98320.28
2022-10-22T12:54:32.187Z,98318.91
2022-10-22T12:56:59.349Z,98321.66
2022-10-22T12:59:29.074Z,98328.53
2022-10-22T13:01:56.906Z,98332.38
2022-10-22T13:04:26.716Z,98319.34
2022-10-22T13:07:16.961Z,98320.78
2022-10-22T13:10:21.668Z,98322.28
2022-10-22T13:12:54.363Z,98325.91
2022-10-22T13:15:22.850Z,98317.00
2022-10-22T13:17:52.655Z,98326.13
2022-10-22T13:20:23.326Z,98324.00
2022-10-22T13:23:01.332Z,98316.78
2022-10-22T13:25:32.361Z,98328.97
2022-10-22T13:28:04.081Z,98328.66
2022-10-22T13:30:34.266Z,98324.41
2022-10-22T13:33:04.065Z,98328.72
2022-10-22T13:35:35.190Z,98331.19
2022-10-22T13:38:02.162Z,98329.88
2022-10-22T13:40:28.848Z,98329.63
2022-10-22T13:42:55.584Z,98327.47
2022-10-22T13:45:22.188Z,98328.91
2022-10-22T13:47:52.347Z,98331.19
2022-10-22T13:50:21.240Z,98337.84
2022-10-22T13:52:56.618Z,98333.72
2022-10-22T13:55:25.818Z,98337.47
2022-10-22T13:58:10.869Z,98336.56
2022-10-22T14:00:43.311Z,98337.94
2022-10-22T14:03:16.425Z,98335.38
2022-10-22T14:05:44.039Z,98343.13
2022-10-22T14:08:16.949Z,98347.97
2022-10-22T14:10:43.648Z,98346.94
2022-10-22T14:13:15.576Z,98349.81
2022-10-22T14:15:45.260Z,98356.19
2022-10-22T14:18:16.963Z,98352.50
2022-10-22T14:20:43.770Z,98355.59
2022-10-22T14:25:43.276Z,98350.97
2022-10-22T14:28:12.071Z,98349.41
2022-10-22T14:30:39.168Z,98350.19
2022-10-22T14:33:28.858Z,98357.22
2022-10-22T14:35:56.966Z,98358.31
2022-10-22T14:38:23.602Z,98353.75
2022-10-22T14:40:50.526Z,98352.56
2022-10-22T14:43:22.417Z,98356.16
2022-10-22T14:45:50.030Z,98365.94
2022-10-22T14:48:17.171Z,98361.41
2022-10-22T14:50:44.836Z,98357.13
2022-10-22T14:53:13.720Z,98361.78
2022-10-22T14:55:41.465Z,98361.84
2022-10-22T14:58:08.210Z,98369.66
2022-10-22T15:00:36.851Z,98365.03
2022-10-22T15:03:04.486Z,98367.59
2022-10-22T15:05:31.265Z,98367.09
2022-10-22T15:07:59.353Z,98370.50
2022-10-22T15:10:26.431Z,98371.91
2022-10-22T15:12:53.358Z,98377.88
2022-10-22T15:15:22.649Z,98378.91
2022-10-22T15:17:49.932Z,98381.78
2022-10-22T15:20:16.584Z,98384.34
2022-10-22T15:22:43.694Z,98382.59
2022-10-22T15:25:12.820Z,98390.69
2022-10-22T15:27:39.533Z,98392.72
2022-10-22T15:30:07.738Z,98390.56
2022-10-22T15:32:34.367Z,98384.69
2022-10-22T15:35:06.049Z,98380.19
2022-10-22T15:37:32.662Z,98389.59
2022-10-22T15:40:00.621Z,98391.53
2022-10-22T15:42:27.199Z,98392.28
2022-10-22T15:44:59.126Z,98394.16
2022-10-22T15:47:28.723Z,98401.69
2022-10-22T15:49:55.832Z,98416.78
2022-10-22T15:52:22.493Z,98414.56
2022-10-22T15:54:52.091Z,98420.25
2022-10-22T15:57:18.629Z,98427.19
2022-10-22T15:59:45.109Z,98422.41
2022-10-22T16:02:11.998Z,98428.09
2022-10-22T16:04:39.331Z,98430.22
2022-10-22T16:07:06.794Z,98434.53
2022-10-22T16:09:33.471Z,98434.09
2022-10-22T16:12:00.319Z,98443.34
2022-10-22T16:14:28.821Z,98446.59
2022-10-22T16:16:56.431Z,98449.59
2022-10-22T16:19:24.149Z,98458.41
2022-10-22T16:21:52.856Z,98454.78
2022-10-22T16:24:20.036Z,98461.53
2022-10-22T16:26:47.427Z,98456.13
2022-10-22T16:29:14.706Z,98451.69
2022-10-22T16:31:43.707Z,98457.28
2022-10-22T16:34:10.443Z,98457.78
2022-10-22T16:36:37.240Z,98451.03
2022-10-22T16:39:05.035Z,98453.81
2022-10-22T16:41:35.507Z,98459.53
2022-10-22T16:44:06.066Z,98463.25
2022-10-22T16:46:33.538Z,98457.75
2022-10-22T16:49:00.686Z,98459.53
2022-10-22T16:51:28.490Z,98463.91
2022-10-22T16:53:57.109Z,98450.91
2022-10-22T16:56:24.823Z,98456.06
2022-10-22T16:58:53.991Z,98460.84
2022-10-22T17:01:24.387Z,98464.41
2022-10-22T17:03:51.066Z,98468.16
2022-10-22T17:06:17.704Z,98462.69
2022-10-22T17:08:44.394Z,98467.41
2022-10-22T17:11:19.576Z,98473.19
2022-10-22T17:13:49.085Z,98476.94
2022-10-22T17:16:17.628Z,98484.94
2022-10-22T17:21:14.300Z,98495.69
2022-10-22T17:23:42.791Z,98499.53
2022-10-22T17:26:17.623Z,98498.53
2022-10-22T17:28:44.718Z,98504.69
2022-10-22T17:31:21.514Z,98504.97
2022-10-22T17:33:49.989Z,98508.25
2022-10-22T17:36:18.123Z,98510.38
2022-10-22T17:38:48.788Z,98500.56
2022-10-22T17:41:18.621Z,98504.34
2022-10-22T17:46:32.388Z,98500.81
2022-10-22T17:49:01.677Z,98504.38
2022-10-22T17:51:30.074Z,98507.34
2022-10-22T17:53:56.856Z,98510.38
2022-10-22T17:56:26.118Z,98518.69
2022-10-22T17:58:53.965Z,98521.38
2022-10-22T18:01:29.886Z,98512.38
2022-10-22T18:04:00.607Z,98513.25
2022-10-22T18:06:27.203Z,98514.38
2022-10-22T18:11:22.632Z,98515.03
2022-10-22T18:13:51.048Z,98510.53
2022-10-22T18:16:18.620Z,98523.34
2022-10-22T18:18:50.231Z,98516.56
2022-10-22T18:21:18.092Z,98514.72
2022-10-22T18:23:45.793Z,98514.97
2022-10-22T18:26:12.952Z,98511.41
2022-10-22T18:28:39.757Z,98514.44
2022-10-22T18:31:08.937Z,98514.34
2022-10-22T18:33:40.174Z,98516.63
2022-10-22T18:36:10.456Z,98517.06
2022-10-22T18:38:38.382Z,98525.19
2022-10-22T18:41:09.554Z,98521.91
2022-10-22T18:43:37.040Z,98528.19
2022-10-22T18:46:07.146Z,98530.78
2022-10-22T18:48:35.174Z,98532.78
2022-10-22T18:51:07.245Z,98538.06
2022-10-22T18:53:35.203Z,98530.38
2022-10-22T18:56:04.192Z,98537.72
2022-10-22T18:58:30.848Z,98537.97
2022-10-22T19:00:57.555Z,98530.50
2022-10-22T19:03:24.168Z,98537.84
2022-10-22T19:05:54.888Z,98523.59
2022-10-22T19:08:23.833Z,98528.06
2022-10-22T19:10:50.407Z,98535.41
2022-10-22T19:13:18.594Z,98534.38
2022-10-22T19:15:45.392Z,98530.03
2022-10-22T19:18:13.486Z,98539.09
2022-10-22T19:20:40.151Z,98547.66
2022-10-22T19:23:07.880Z,98541.25
2022-10-22T19:25:35.247Z,98557.50
2022-10-22T19:28:01.902Z,98558.19
2022-10-22T19:30:28.515Z,98558.28
2022-10-22T19:32:55.168Z,98563.47
2022-10-22T19:35:22.073Z,98562.91
2022-10-22T19:37:48.863Z,98563.97
2022-10-22T19:40:15.735Z,98561.47
2022-10-22T19:42:44.372Z,98570.66
2022-10-22T19:45:11.446Z,98569.06
2022-10-22T19:47:38.156Z,98573.75
2022-10-22T19:50:05.807Z,98578.72
2022-10-22T19:52:33.645Z,98580.56
2022-10-22T19:55:00.227Z,98578.00
2022-10-22T19:57:26.735Z,98580.03
2022-10-22T19:59:53.323Z,98586.31
2022-10-22T20:02:19.907Z,98587.28
2022-10-22T20:04:50.004Z,98591.97
2022-10-22T20:07:16.872Z,98588.47
2022-10-22T20:09:43.609Z,98596.06
2022-10-22T20:12:10.167Z,98586.47
2022-10-22T20:14:37.606Z,98591.06
2022-10-22T20:17:04.376Z,98597.31
2022-10-22T20:19:31.182Z,98599.31
2022-10-22T20:24:24.357Z,98602.88
2022-10-22T20:26:50.934Z,98608.44
2022-10-22T20:29:19.349Z,98598.94
2022-10-22T20:31:46.448Z,98612.66
2022-10-22T20:34:13.645Z,98616.41
2022-10-22T20:36:41.022Z,98618.41
2022-10-22T20:39:11.863Z,98619.41
2022-10-22T20:41:40.632Z,98614.84
2022-10-22T20:44:12.757Z,98612.59
2022-10-22T20:46:39.521Z,98616.09
2022-10-22T20:49:09.422Z,98611.78
2022-10-22T20:51:36.785Z,98611.56
2022-10-22T20:54:04.605Z,98607.16
2022-10-22T20:56:32.314Z,98598.16
2022-10-22T20:59:05.856Z,98606.63
2022-10-22T21:01:36.316Z,98595.22
2022-10-22T21:04:03.203Z,98589.03
2022-10-22T21:06:30.154Z,98582.34
2022-10-22T21:08:56.774Z,98583.41
2022-10-22T21:11:23.608Z,98589.84
2022-10-22T21:13:50.640Z,98585.31
2022-10-22T21:16:18.568Z,98582.94
2022-10-22T21:18:46.515Z,98582.31
2022-10-22T21:21:13.216Z,98589.47
2022-10-22T21:23:40.228Z,98585.25
2022-10-22T21:26:06.996Z,98600.28
2022-10-22T21:28:35.883Z,98590.72
2022-10-22T21:31:04.898Z,98596.00
2022-10-22T21:33:35.091Z,98589.97
2022-10-22T21:36:01.764Z,98596.06
2022-10-22T21:38:28.305Z,98591.78
2022-10-22T21:40:54.895Z,98596.84
2022-10-22T21:43:21.798Z,98593.47
2022-10-22T21:45:48.394Z,98594.16
2022-10-22T21:48:15.871Z,98600.66
2022-10-22T21:50:44.034Z,98603.16
2022-10-22T21:53:12.195Z,98606.00
2022-10-22T21:55:40.519Z,98613.84
2022-10-22T21:58:08.293Z,98617.53
2022-10-22T22:00:35.876Z,98615.50
2022-10-22T22:03:02.981Z,98615.75
2022-10-22T22:05:29.570Z,98611.25
2022-10-22T22:07:56.267Z,98613.91
2022-10-22T22:10:23.222Z,98611.19
2022-10-22T22:12:51.776Z,98617.19
2022-10-22T22:15:19.917Z,98614.47
2022-10-22T22:17:47.081Z,98610.84
2022-10-22T22:20:14.003Z,98616.19
2022-10-22T22:22:40.870Z,98617.78
2022-10-22T22:25:08.022Z,98606.22
2022-10-22T22:27:34.788Z,98616.41
2022-10-22T22:30:01.482Z,98622.66
2022-10-22T22:32:27.994Z,98610.41
2022-10-22T22:34:54.757Z,98608.31
2022-10-22T22:37:21.410Z,98608.88
2022-10-22T22:39:47.957Z,98605.13
2022-10-22T22:42:14.641Z,98594.31
2022-10-22T22:44:41.200Z,98598.72
2022-10-22T22:47:07.731Z,98591.44
2022-10-22T22:49:35.831Z,98600.22
2022-10-22T22:52:03.663Z,98587.53
2022-10-22T22:54:30.812Z,98578.66
2022-10-22T22:56:57.477Z,98573.13
2022-10-22T22:59:24.131Z,98569.88
2022-10-22T23:01:50.940Z,98572.63
2022-10-22T23:04:22.898Z,98568.25
2022-10-22T23:06:50.240Z,98564.84
2022-10-22T23:11:46.087Z,98570.72
2022-10-22T23:14:15.463Z,98559.56
2022-10-22T23:16:46.355Z,98560.03
2022-10-22T23:19:14.941Z,98562.41
2022-10-22T23:21:45.878Z,98569.31
2022-10-22T23:24:15.206Z,98564.59
2022-10-22T23:26:45.407Z,98564.81
2022-10-22T23:29:24.306Z,98560.97
2022-10-22T23:31:51.560Z,98566.06
2022-10-22T23:34:23.763Z,98564.41
2022-10-22T23:36:51.189Z,98567.84
2022-10-22T23:39:20.569Z,98561.09
2022-10-22T23:41:47.363Z,98561.94
2022-10-22T23:44:14.490Z,98557.09
2022-10-22T23:46:42.983Z,98548.38
2022-10-22T23:49:10.704Z,98550.22
2022-10-22T23:51:38.707Z,98558.03
2022-10-22T23:54:08.258Z,98542.97
2022-10-22T23:56:35.953Z,98544.19
2022-10-22T23:59:04.043Z,98546.09
